Time;durP1;ratioP1;P1;durP2;ratioP2;P2;SDS_P1;SDS_P2;PMS_P1;PMS_P2;Temp;Humidity;BMP_temperature;BMP_pressure;BME280_temperature;BME280_humidity;BME280_pressure;Samples;Min_cycle;Max_cycle;Signal;HPM_P1;HPM_P2
2021/12/12 00:01:52;;;;;;;21.27;7.65;;;3.50;99.90;;;;;;5005590;28;20042;-80
2021/12/12 00:04:22;;;;;;;14.32;8.00;;;3.50;99.90;;;;;;4989326;28;20053;-80
2021/12/12 00:06:57;;;;;;;17.77;7.18;;;3.50;99.90;;;;;;4973154;28;20070;-81
2021/12/12 00:09:33;;;;;;;20.08;8.48;;;3.50;99.90;;;;;;5061449;28;20041;-80
2021/12/12 00:12:06;;;;;;;18.23;7.72;;;3.50;99.90;;;;;;5049107;28;20045;-83
2021/12/12 00:14:34;;;;;;;13.32;6.32;;;3.50;99.90;;;;;;5065921;28;20083;-82
2021/12/12 00:17:00;;;;;;;20.00;7.43;;;3.50;99.90;;;;;;5066112;28;20060;-82
2021/12/12 00:19:28;;;;;;;16.73;6.57;;;3.60;99.90;;;;;;5065720;28;20500;-82
2021/12/12 00:21:57;;;;;;;19.90;8.63;;;3.50;99.90;;;;;;5065668;28;20096;-80
2021/12/12 00:24:23;;;;;;;21.38;7.80;;;3.60;99.90;;;;;;5048954;28;20036;-80
2021/12/12 00:26:52;;;;;;;19.20;8.10;;;3.60;99.90;;;;;;5065444;28;20427;-81
2021/12/12 00:29:20;;;;;;;19.17;6.60;;;3.60;99.90;;;;;;5065036;28;20039;-81
2021/12/12 00:31:47;;;;;;;14.60;7.07;;;3.60;99.90;;;;;;5065447;28;20037;-80
2021/12/12 00:34:14;;;;;;;20.55;6.85;;;3.60;99.90;;;;;;5065372;28;20063;-80
2021/12/12 00:36:41;;;;;;;16.50;6.65;;;3.60;99.90;;;;;;5065358;28;20068;-80
2021/12/12 00:39:17;;;;;;;19.90;7.07;;;3.60;99.90;;;;;;5049933;28;20120;-81
2021/12/12 00:41:48;;;;;;;17.88;7.13;;;3.60;99.90;;;;;;5045426;28;20385;-80
2021/12/12 00:44:15;;;;;;;19.50;7.35;;;3.60;99.90;;;;;;5045108;28;20033;-79
2021/12/12 00:46:40;;;;;;;16.38;7.55;;;3.60;99.90;;;;;;5045143;28;20040;-80
2021/12/12 00:49:07;;;;;;;14.88;6.80;;;3.60;99.90;;;;;;5045254;28;20113;-80
2021/12/12 00:51:39;;;;;;;19.40;5.68;;;3.70;99.90;;;;;;5044792;28;20036;-80
2021/12/12 00:54:06;;;;;;;17.42;6.03;;;3.70;99.90;;;;;;5044477;28;20045;-80
2021/12/12 00:56:32;;;;;;;13.75;5.38;;;3.70;99.90;;;;;;5044842;28;20087;-81
2021/12/12 00:58:58;;;;;;;12.90;5.88;;;3.70;99.90;;;;;;5044717;28;20131;-80
2021/12/12 01:01:35;;;;;;;15.50;6.60;;;3.70;99.90;;;;;;5044713;28;20093;-80
2021/12/12 01:04:09;;;;;;;19.35;5.97;;;3.70;99.90;;;;;;5044906;28;20030;-80
2021/12/12 01:06:36;;;;;;;10.93;4.80;;;3.70;99.90;;;;;;5044890;28;20041;-80
2021/12/12 01:09:07;;;;;;;16.33;5.13;;;3.70;99.90;;;;;;5044878;28;20025;-80
2021/12/12 01:11:37;;;;;;;6.57;3.45;;;3.80;99.90;;;;;;5044545;28;20088;-80
2021/12/12 01:14:10;;;;;;;12.57;4.40;;;3.80;99.90;;;;;;5044733;28;20040;-80
2021/12/12 01:16:59;;;;;;;13.38;4.68;;;3.80;99.90;;;;;;5044879;28;20036;-80
2021/12/12 01:19:30;;;;;;;11.93;4.05;;;3.90;99.90;;;;;;5044646;28;20037;-83
2021/12/12 01:22:00;;;;;;;13.80;5.20;;;3.80;99.90;;;;;;5044519;28;20029;-83
2021/12/12 01:24:37;;;;;;;;;;;3.90;99.90;;;;;;5044991;28;20072;-83
2021/12/12 01:27:05;;;;;;;11.82;3.92;;;3.90;99.90;;;;;;5044527;28;19996;-83
2021/12/12 01:29:31;;;;;;;10.60;3.85;;;3.90;99.90;;;;;;5027443;28;20140;-83
2021/12/12 01:32:00;;;;;;;14.13;4.53;;;3.90;99.90;;;;;;5044281;28;20087;-83
2021/12/12 01:34:29;;;;;;;17.60;4.22;;;3.90;99.90;;;;;;5044526;28;20572;-83
2021/12/12 01:39:50;;;;;;;16.02;4.20;;;4.00;99.90;;;;;;5040999;28;20041;-83
2021/12/12 01:42:24;;;;;;;12.15;4.53;;;4.00;99.90;;;;;;5007991;28;20056;-82
2021/12/12 01:45:10;;;;;;;14.27;4.50;;;4.00;99.90;;;;;;5008037;28;20038;-82
2021/12/12 01:47:51;;;;;;;12.70;4.55;;;4.00;99.90;;;;;;5008043;28;20043;-83
2021/12/12 01:50:28;;;;;;;14.30;4.25;;;4.00;99.90;;;;;;5007902;28;20125;-82
2021/12/12 01:52:56;;;;;;;13.65;4.50;;;4.00;99.90;;;;;;5007991;28;20041;-80
2021/12/12 01:55:36;;;;;;;15.32;5.35;;;4.00;99.90;;;;;;5008133;28;20113;-80
2021/12/12 01:58:06;;;;;;;13.30;3.75;;;4.10;99.90;;;;;;5007971;28;20037;-81
2021/12/12 02:00:43;;;;;;;12.80;4.10;;;4.10;99.90;;;;;;5024281;28;20038;-80
2021/12/12 02:03:11;;;;;;;11.48;4.63;;;4.10;99.90;;;;;;5024551;28;20034;-81
2021/12/12 02:05:38;;;;;;;15.05;4.20;;;4.10;99.90;;;;;;5010960;28;20030;-80
2021/12/12 02:08:09;;;;;;;12.98;3.97;;;4.10;99.90;;;;;;5011990;28;20038;-80
2021/12/12 02:10:48;;;;;;;11.02;4.28;;;4.10;99.90;;;;;;5028385;28;20033;-81
2021/12/12 02:13:19;;;;;;;12.70;4.28;;;4.10;99.90;;;;;;5028366;28;20046;-81
2021/12/12 02:15:48;;;;;;;16.23;4.25;;;4.10;99.90;;;;;;5011811;28;20038;-80
2021/12/12 02:18:18;;;;;;;9.63;2.80;;;4.10;99.90;;;;;;5011963;28;20113;-80
2021/12/12 02:21:17;;;;;;;16.88;4.60;;;4.10;99.90;;;;;;5011819;28;20041;-80
2021/12/12 02:35:08;;;;;;;14.57;5.20;;;4.20;99.90;;;;;;5027606;28;20064;-80
2021/12/12 02:37:34;;;;;;;19.00;5.03;;;4.20;99.90;;;;;;5031293;28;20034;-80
2021/12/12 02:40:02;;;;;;;10.95;3.97;;;4.20;99.90;;;;;;5047547;28;20030;-80
2021/12/12 02:42:28;;;;;;;9.95;3.85;;;4.10;99.90;;;;;;5047421;28;20040;-80
2021/12/12 02:44:58;;;;;;;10.30;4.07;;;4.20;99.90;;;;;;5047327;28;20037;-80
2021/12/12 02:47:32;;;;;;;11.15;3.92;;;4.10;99.90;;;;;;5047398;28;20029;-80
2021/12/12 02:50:11;;;;;;;13.38;5.32;;;4.20;99.90;;;;;;5047233;28;20034;-80
2021/12/12 02:52:40;;;;;;;12.40;5.13;;;4.20;99.90;;;;;;5047057;28;20045;-80
2021/12/12 02:55:17;;;;;;;19.88;5.28;;;4.20;99.90;;;;;;5047620;28;20080;-80
2021/12/12 02:57:43;;;;;;;13.07;4.55;;;4.20;99.90;;;;;;5047255;28;20029;-81
2021/12/12 03:00:12;;;;;;;17.80;4.72;;;4.20;99.90;;;;;;5030291;28;20036;-80
2021/12/12 03:02:45;;;;;;;16.70;5.17;;;4.20;99.90;;;;;;5030573;28;20037;-80
2021/12/12 03:05:13;;;;;;;18.08;5.03;;;4.20;99.90;;;;;;5047186;28;20280;-80
2021/12/12 03:07:39;;;;;;;13.00;4.35;;;4.20;99.90;;;;;;5047001;28;20039;-80
2021/12/12 03:10:09;;;;;;;12.52;5.03;;;4.20;99.90;;;;;;5046918;28;20530;-81
2021/12/12 03:12:36;;;;;;;14.20;5.18;;;4.30;99.90;;;;;;5046769;28;20072;-80
2021/12/12 03:15:10;;;;;;;13.18;4.40;;;4.30;99.90;;;;;;5046920;28;20037;-80
2021/12/12 03:17:36;;;;;;;18.88;5.28;;;4.30;99.90;;;;;;5045984;28;20478;-80
2021/12/12 03:20:10;;;;;;;13.77;4.22;;;4.30;99.90;;;;;;5046778;28;20099;-81
2021/12/12 03:22:36;;;;;;;14.13;4.85;;;4.30;99.90;;;;;;5046859;28;20040;-81
2021/12/12 03:25:02;;;;;;;12.50;3.72;;;4.30;99.90;;;;;;5046796;28;20120;-81
2021/12/12 03:27:28;;;;;;;14.35;4.65;;;4.40;99.90;;;;;;5046715;28;20092;-80
2021/12/12 03:29:54;;;;;;;11.52;4.35;;;4.40;99.90;;;;;;5046304;28;20042;-80
2021/12/12 03:32:21;;;;;;;13.00;4.07;;;4.30;99.90;;;;;;5046380;28;20504;-80
2021/12/12 03:34:52;;;;;;;13.02;4.60;;;4.40;99.90;;;;;;5046761;28;20047;-81
2021/12/12 03:37:21;;;;;;;13.88;4.25;;;4.40;99.90;;;;;;5046985;28;20029;-81
2021/12/12 03:39:53;;;;;;;15.73;5.07;;;4.40;99.90;;;;;;5049789;28;20033;-81
2021/12/12 03:42:22;;;;;;;16.63;5.10;;;4.50;99.90;;;;;;5049882;28;20040;-81
2021/12/12 03:44:49;;;;;;;14.90;4.63;;;4.40;99.90;;;;;;5067069;28;20413;-82
2021/12/12 03:47:28;;;;;;;12.30;5.47;;;4.50;99.90;;;;;;5067055;28;20131;-82
2021/12/12 03:49:55;;;;;;;15.68;4.40;;;4.50;99.90;;;;;;5067091;28;20044;-81
2021/12/12 03:52:22;;;;;;;17.70;4.93;;;4.40;99.90;;;;;;5049933;28;20067;-80
2021/12/12 03:54:49;;;;;;;15.38;5.22;;;4.50;99.90;;;;;;5067549;28;20025;-81
2021/12/12 03:57:20;;;;;;;12.25;4.72;;;4.50;99.90;;;;;;5066149;28;20471;-81
2021/12/12 03:59:46;;;;;;;10.88;4.68;;;4.50;99.90;;;;;;5049533;28;20025;-80
2021/12/12 04:02:13;;;;;;;14.93;6.05;;;4.50;99.90;;;;;;5049312;28;20033;-82
2021/12/12 04:04:42;;;;;;;12.07;4.60;;;4.60;99.90;;;;;;5066079;28;20036;-81
2021/12/12 04:07:13;;;;;;;12.20;4.20;;;4.60;99.90;;;;;;5066011;28;20045;-81
2021/12/12 04:09:39;;;;;;;7.40;3.72;;;4.60;99.90;;;;;;5066188;28;20033;-81
2021/12/12 04:12:08;;;;;;;10.68;3.33;;;4.70;99.90;;;;;;5066167;28;20048;-81
2021/12/12 04:14:34;;;;;;;14.27;4.43;;;4.60;99.90;;;;;;5065840;28;20036;-80
2021/12/12 04:17:07;;;;;;;8.63;4.18;;;4.70;99.90;;;;;;5049041;28;20033;-81
2021/12/12 04:19:32;;;;;;;11.27;3.92;;;4.70;99.90;;;;;;5049022;28;20029;-81
2021/12/12 04:22:00;;;;;;;11.65;3.65;;;4.70;99.90;;;;;;5065920;28;20025;-81
2021/12/12 04:24:30;;;;;;;10.18;3.05;;;4.70;99.90;;;;;;5048960;28;20439;-80
2021/12/12 04:26:56;;;;;;;14.20;3.92;;;4.70;99.90;;;;;;5065791;28;20067;-81
2021/12/12 04:29:28;;;;;;;10.02;3.65;;;4.70;99.90;;;;;;5064892;28;20079;-81
2021/12/12 04:31:57;;;;;;;7.03;3.50;;;4.80;99.90;;;;;;5065543;28;20044;-81
2021/12/12 04:34:28;;;;;;;11.82;4.78;;;4.70;99.90;;;;;;5065129;28;20040;-80
2021/12/12 04:36:56;;;;;;;9.95;3.85;;;4.80;99.90;;;;;;5065307;28;20032;-80
2021/12/12 04:39:25;;;;;;;9.57;3.95;;;4.80;99.90;;;;;;5031155;28;20122;-81
2021/12/12 04:41:56;;;;;;;10.27;3.73;;;4.70;99.90;;;;;;5028876;28;20026;-79
2021/12/12 04:44:30;;;;;;;10.27;3.70;;;4.70;99.90;;;;;;5045318;28;20279;-79
2021/12/12 04:50:51;;;;;;;7.03;3.58;;;4.70;99.90;;;;;;5044976;28;20093;-80
2021/12/12 04:53:29;;;;;;;7.22;3.42;;;4.80;99.90;;;;;;5018334;28;20204;-80
2021/12/12 04:56:15;;;;;;;11.70;4.38;;;4.70;99.90;;;;;;5045128;28;20037;-80
2021/12/12 04:58:48;;;;;;;6.78;3.15;;;4.80;99.90;;;;;;5028351;28;20433;-80
2021/12/12 05:01:22;;;;;;;6.75;3.85;;;4.80;99.90;;;;;;5028474;28;20044;-80
2021/12/12 05:03:56;;;;;;;7.80;2.90;;;4.80;99.90;;;;;;5028387;28;20041;-80
2021/12/12 05:06:36;;;;;;;5.47;2.55;;;4.80;99.90;;;;;;5028555;28;20503;-81
2021/12/12 05:09:13;;;;;;;7.60;2.72;;;4.80;99.90;;;;;;5028387;28;20075;-81
2021/12/12 05:12:01;;;;;;;5.72;2.95;;;4.80;99.90;;;;;;5028467;28;20042;-81
2021/12/12 05:14:34;;;;;;;6.75;3.25;;;4.80;99.90;;;;;;5044638;28;20029;-80
2021/12/12 05:17:13;;;;;;;8.55;3.60;;;4.90;99.90;;;;;;5044905;28;20037;-80
2021/12/12 05:19:46;;;;;;;5.82;2.95;;;4.80;99.90;;;;;;5028273;28;20029;-81
2021/12/12 05:22:17;;;;;;;6.85;3.17;;;4.90;99.90;;;;;;5044914;28;20083;-80
2021/12/12 05:24:45;;;;;;;7.50;3.65;;;4.90;99.90;;;;;;5028193;28;20040;-80
2021/12/12 05:27:18;;;;;;;7.72;2.90;;;4.90;99.90;;;;;;5044569;28;20037;-80
2021/12/12 05:29:53;;;;;;;6.72;2.97;;;4.90;99.90;;;;;;5044024;28;20034;-80
2021/12/12 05:32:20;;;;;;;5.45;2.17;;;4.90;99.90;;;;;;5027820;28;20048;-79
2021/12/12 05:34:50;;;;;;;9.10;2.95;;;4.90;99.90;;;;;;5044177;28;20036;-80
2021/12/12 05:37:17;;;;;;;3.63;2.07;;;4.90;99.90;;;;;;5027821;28;20029;-79
2021/12/12 05:39:43;;;;;;;6.60;2.85;;;4.90;99.90;;;;;;5043878;28;20764;-80
2021/12/12 05:42:11;;;;;;;4.88;2.25;;;4.90;99.90;;;;;;5044391;28;20053;-79
2021/12/12 05:44:37;;;;;;;5.60;2.50;;;4.90;99.90;;;;;;5044191;28;20049;-79
2021/12/12 05:47:05;;;;;;;6.10;2.70;;;5.00;99.90;;;;;;5044401;28;20037;-79
2021/12/12 05:49:32;;;;;;;5.13;2.40;;;5.00;99.90;;;;;;5043961;28;20053;-79
2021/12/12 05:51:59;;;;;;;5.18;2.03;;;5.00;99.90;;;;;;5044685;28;20048;-79
2021/12/12 05:54:27;;;;;;;6.28;3.13;;;5.00;99.90;;;;;;5045226;28;20060;-79
2021/12/12 05:56:53;;;;;;;8.43;2.90;;;5.00;99.90;;;;;;5044248;28;20076;-80
2021/12/12 05:59:20;;;;;;;6.85;3.25;;;5.00;99.90;;;;;;5043792;28;20037;-79
2021/12/12 06:01:46;;;;;;;4.45;2.65;;;5.00;99.90;;;;;;5044055;28;20116;-79
2021/12/12 06:04:12;;;;;;;7.25;2.78;;;5.10;99.90;;;;;;5043908;28;20026;-79
2021/12/12 06:06:40;;;;;;;4.82;3.00;;;5.10;99.90;;;;;;5044056;28;20034;-79
2021/12/12 06:09:09;;;;;;;5.75;2.30;;;5.10;99.90;;;;;;5044030;28;20061;-79
2021/12/12 06:11:42;;;;;;;6.25;2.65;;;5.10;99.90;;;;;;5043995;28;20076;-79
2021/12/12 06:14:09;;;;;;;8.88;3.10;;;5.10;99.90;;;;;;5045307;28;20084;-79
2021/12/12 06:16:37;;;;;;;7.65;3.55;;;5.10;99.90;;;;;;5043881;28;20059;-79
2021/12/12 06:19:07;;;;;;;7.72;3.95;;;5.20;99.90;;;;;;5043915;28;20041;-79
2021/12/12 06:21:33;;;;;;;7.47;2.92;;;5.10;99.90;;;;;;5043877;28;20029;-79
2021/12/12 06:24:00;;;;;;;6.78;3.72;;;5.20;99.90;;;;;;5043861;28;20049;-79
2021/12/12 06:26:26;;;;;;;5.75;3.13;;;5.20;99.90;;;;;;5043792;28;20026;-79
2021/12/12 06:28:51;;;;;;;9.52;3.75;;;5.20;99.90;;;;;;5044949;28;20056;-79
2021/12/12 06:31:18;;;;;;;5.97;3.90;;;5.20;99.90;;;;;;5043417;28;20049;-79
2021/12/12 06:33:44;;;;;;;5.90;3.85;;;5.20;99.90;;;;;;5043916;28;20037;-79
2021/12/12 06:36:12;;;;;;;9.27;4.07;;;5.20;99.90;;;;;;5043614;28;20033;-79
2021/12/12 06:38:41;;;;;;;5.50;3.08;;;5.30;99.90;;;;;;5043730;28;20120;-79
2021/12/12 06:41:07;;;;;;;5.07;2.88;;;5.20;99.90;;;;;;5043483;28;20030;-79
2021/12/12 06:43:33;;;;;;;5.82;3.70;;;5.30;99.90;;;;;;5043877;28;20044;-79
2021/12/12 06:46:00;;;;;;;11.52;5.22;;;5.30;99.90;;;;;;5043871;28;20030;-79
2021/12/12 06:48:26;;;;;;;8.70;3.88;;;5.40;99.90;;;;;;5043860;28;20076;-79
2021/12/12 06:50:55;;;;;;;10.18;5.43;;;5.40;99.90;;;;;;5043688;28;20048;-79
2021/12/12 06:53:23;;;;;;;11.25;5.72;;;5.40;99.90;;;;;;5047451;28;20037;-79
2021/12/12 06:55:50;;;;;;;11.30;4.90;;;5.40;99.90;;;;;;5047189;28;20037;-79
2021/12/12 06:58:18;;;;;;;9.27;5.45;;;5.40;99.90;;;;;;5047353;28;20033;-79
2021/12/12 07:00:47;;;;;;;11.77;5.45;;;5.40;99.90;;;;;;5048538;28;20021;-79
2021/12/12 07:03:15;;;;;;;9.50;5.60;;;5.50;99.90;;;;;;5047375;28;20033;-79
2021/12/12 07:05:41;;;;;;;15.35;7.32;;;5.50;99.90;;;;;;5046804;28;20486;-78
2021/12/12 07:08:07;;;;;;;9.73;6.35;;;5.50;99.90;;;;;;5047187;28;20106;-79
2021/12/12 07:10:33;;;;;;;9.38;5.40;;;5.50;99.90;;;;;;5046959;28;20033;-79
2021/12/12 07:13:00;;;;;;;12.30;7.05;;;5.50;99.90;;;;;;5046910;28;20042;-79
2021/12/12 07:15:30;;;;;;;7.07;5.22;;;5.50;99.90;;;;;;5047021;28;20034;-80
2021/12/12 07:17:58;;;;;;;14.95;7.60;;;5.60;99.90;;;;;;5046891;28;20056;-81
2021/12/12 07:20:25;;;;;;;11.82;7.07;;;5.60;99.90;;;;;;5046853;28;20441;-81
2021/12/12 07:22:52;;;;;;;12.65;7.55;;;5.70;99.90;;;;;;5046721;28;20064;-81
2021/12/12 07:25:19;;;;;;;10.02;6.38;;;5.60;99.90;;;;;;5046794;28;20040;-79
2021/12/12 07:27:44;;;;;;;11.45;7.22;;;5.70;99.90;;;;;;5046781;28;20052;-79
2021/12/12 07:30:11;;;;;;;12.85;7.53;;;5.70;99.90;;;;;;5046699;28;20073;-79
2021/12/12 07:32:38;;;;;;;12.77;7.90;;;5.70;99.90;;;;;;5046384;28;20068;-79
2021/12/12 07:35:15;;;;;;;10.80;7.10;;;5.80;99.90;;;;;;5046696;28;20435;-79
2021/12/12 07:37:42;;;;;;;9.77;5.57;;;5.80;99.90;;;;;;5046326;28;20064;-79
2021/12/12 07:40:11;;;;;;;11.25;6.53;;;5.80;99.90;;;;;;5046305;28;20120;-79
2021/12/12 07:42:37;;;;;;;11.18;6.45;;;5.80;99.90;;;;;;5046464;28;20447;-79
2021/12/12 07:45:05;;;;;;;12.23;7.22;;;5.80;99.90;;;;;;5046403;28;20488;-79
2021/12/12 07:47:32;;;;;;;14.13;7.88;;;5.90;99.90;;;;;;5046176;28;20036;-79
2021/12/12 07:49:58;;;;;;;16.60;9.77;;;5.90;99.90;;;;;;5046128;28;20059;-79
2021/12/12 07:52:28;;;;;;;14.60;8.30;;;5.90;99.90;;;;;;5047262;28;20080;-79
2021/12/12 07:54:55;;;;;;;;;;;5.90;99.90;;;;;;5030242;28;20055;-79
2021/12/12 07:57:22;;;;;;;12.15;7.47;;;5.90;99.90;;;;;;5045986;28;19909;-79
2021/12/12 07:59:49;;;;;;;15.32;8.95;;;5.90;99.90;;;;;;5045864;28;20436;-79
2021/12/12 08:02:16;;;;;;;18.30;9.60;;;5.90;99.90;;;;;;5045702;28;20040;-79
2021/12/12 08:04:43;;;;;;;17.02;9.95;;;5.90;99.90;;;;;;5045828;28;20029;-79
2021/12/12 08:07:15;;;;;;;20.10;8.60;;;6.00;99.90;;;;;;5045719;28;20033;-79
2021/12/12 08:09:42;;;;;;;17.67;10.30;;;6.00;99.90;;;;;;5045945;28;20034;-79
2021/12/12 08:12:10;;;;;;;19.50;10.80;;;6.00;99.90;;;;;;5045703;28;20050;-79
2021/12/12 08:14:36;;;;;;;17.77;11.00;;;6.10;99.90;;;;;;5046731;28;20037;-79
2021/12/12 08:17:04;;;;;;;21.55;12.15;;;6.10;99.90;;;;;;5044986;28;20044;-79
2021/12/12 08:19:30;;;;;;;19.27;11.00;;;6.10;99.90;;;;;;5045175;28;20078;-79
2021/12/12 08:22:00;;;;;;;23.45;12.05;;;6.10;99.90;;;;;;5044993;28;20048;-79
2021/12/12 08:24:26;;;;;;;19.98;10.27;;;6.20;99.90;;;;;;5046781;28;20060;-79
2021/12/12 08:26:53;;;;;;;14.88;9.68;;;6.10;99.90;;;;;;5044914;28;20060;-79
2021/12/12 08:29:19;;;;;;;22.20;9.57;;;6.20;99.90;;;;;;5044065;28;20029;-79
2021/12/12 08:31:46;;;;;;;18.17;10.05;;;6.20;99.90;;;;;;5044844;28;20136;-79
2021/12/12 08:34:12;;;;;;;17.00;9.85;;;6.20;99.90;;;;;;5045134;28;20057;-79
2021/12/12 08:36:41;;;;;;;18.20;9.70;;;6.20;99.90;;;;;;5044890;28;20025;-79
2021/12/12 08:39:11;;;;;;;22.70;11.00;;;6.20;99.90;;;;;;5044410;28;20040;-79
2021/12/12 08:41:37;;;;;;;17.15;9.80;;;6.20;99.90;;;;;;5044684;28;20089;-79
2021/12/12 08:44:06;;;;;;;21.42;10.25;;;6.20;99.90;;;;;;5044798;28;20033;-79
2021/12/12 08:46:32;;;;;;;20.48;11.43;;;6.30;99.90;;;;;;5044644;28;20022;-79
2021/12/12 08:49:00;;;;;;;21.45;12.18;;;6.30;99.90;;;;;;5044457;28;20492;-79
2021/12/12 08:51:35;;;;;;;22.02;11.20;;;6.40;99.90;;;;;;5044403;28;20041;-79
2021/12/12 08:54:23;;;;;;;21.52;11.77;;;6.40;99.90;;;;;;5044478;28;20037;-78
2021/12/12 08:56:55;;;;;;;21.85;11.60;;;6.30;99.90;;;;;;5044444;28;20030;-79
2021/12/12 08:59:26;;;;;;;24.58;12.93;;;6.40;99.90;;;;;;5044449;28;20462;-79
2021/12/12 09:01:57;;;;;;;24.92;12.75;;;6.40;99.90;;;;;;5044340;28;20033;-79
2021/12/12 09:04:27;;;;;;;18.90;11.65;;;6.40;99.90;;;;;;5044361;28;20037;-79
2021/12/12 09:07:18;;;;;;;21.13;11.05;;;6.50;99.90;;;;;;5044454;28;20045;-79
2021/12/12 09:10:03;;;;;;;17.67;9.73;;;6.50;99.90;;;;;;5027143;28;20072;-79
2021/12/12 09:12:34;;;;;;;20.48;11.60;;;6.50;99.90;;;;;;5044003;28;20045;-79
2021/12/12 09:15:13;;;;;;;21.80;11.52;;;6.50;99.90;;;;;;5043682;28;20040;-79
2021/12/12 09:17:44;;;;;;;19.03;10.87;;;6.50;99.90;;;;;;5045564;28;20036;-79
2021/12/12 09:20:31;;;;;;;16.35;10.52;;;6.60;99.90;;;;;;5045299;28;20378;-81
2021/12/12 09:23:06;;;;;;;18.33;10.18;;;6.50;99.90;;;;;;5044100;28;20061;-80
2021/12/12 09:25:37;;;;;;;17.95;10.52;;;6.60;99.90;;;;;;5043998;28;20030;-79
2021/12/12 09:28:10;;;;;;;22.42;12.02;;;6.60;99.90;;;;;;5043642;28;20033;-79
2021/12/12 09:30:37;;;;;;;16.02;10.55;;;6.70;99.90;;;;;;5043686;28;20049;-79
2021/12/12 09:33:25;;;;;;;16.80;10.05;;;6.70;99.90;;;;;;5044924;28;20128;-79
2021/12/12 09:36:15;;;;;;;16.05;9.65;;;6.70;99.90;;;;;;5044032;28;20161;-80
2021/12/12 09:38:59;;;;;;;14.38;9.68;;;6.80;99.90;;;;;;5043457;28;20021;-79
2021/12/12 09:42:01;;;;;;;18.95;9.70;;;6.70;99.90;;;;;;5043627;28;20068;-79
2021/12/12 09:44:59;;;;;;;16.02;10.07;;;6.80;99.90;;;;;;5043441;28;20044;-79
2021/12/12 09:48:27;;;;;;;15.15;8.95;;;6.80;99.90;;;;;;5043820;28;20037;-79
2021/12/12 09:51:14;;;;;;;18.88;10.40;;;6.80;99.90;;;;;;5043508;28;20021;-79
2021/12/12 09:54:01;;;;;;;16.38;9.45;;;6.90;99.90;;;;;;5043462;28;20046;-79
2021/12/12 09:56:49;;;;;;;22.08;10.68;;;6.90;99.90;;;;;;5043661;28;20056;-79
2021/12/12 09:59:50;;;;;;;17.90;9.25;;;6.90;99.90;;;;;;5043096;28;20040;-79
2021/12/12 10:02:28;;;;;;;15.25;9.27;;;7.00;99.90;;;;;;5016313;28;20053;-79
2021/12/12 10:05:32;;;;;;;19.02;10.27;;;7.00;99.90;;;;;;5043242;28;20033;-79
2021/12/12 10:08:30;;;;;;;16.50;8.75;;;7.00;99.90;;;;;;5043230;28;20037;-79
2021/12/12 10:11:10;;;;;;;16.67;8.38;;;7.00;99.90;;;;;;5043274;28;20025;-79
2021/12/12 10:13:36;;;;;;;14.77;8.45;;;7.10;99.90;;;;;;5044616;28;20042;-79
2021/12/12 10:16:10;;;;;;;20.23;9.32;;;7.10;99.90;;;;;;5026653;28;20496;-79
2021/12/12 10:18:48;;;;;;;19.10;9.80;;;7.10;99.90;;;;;;5043076;28;20049;-79
2021/12/12 10:21:36;;;;;;;18.98;9.25;;;7.10;99.90;;;;;;5043261;28;20036;-79
2021/12/12 10:24:28;;;;;;;21.05;9.88;;;7.10;99.90;;;;;;5043177;28;20076;-79
2021/12/12 10:27:11;;;;;;;15.13;6.80;;;7.20;99.90;;;;;;5040037;28;20069;-79
2021/12/12 10:29:56;;;;;;;16.20;7.55;;;7.20;99.90;;;;;;5046470;28;20120;-79
2021/12/12 10:32:26;;;;;;;23.63;8.88;;;7.20;99.90;;;;;;5046920;28;20038;-79
2021/12/12 10:35:05;;;;;;;16.88;7.78;;;7.30;99.90;;;;;;5047094;28;20057;-78
2021/12/12 10:37:49;;;;;;;17.57;9.20;;;7.40;99.90;;;;;;5046816;28;20033;-78
2021/12/12 10:40:30;;;;;;;19.73;9.32;;;7.40;99.90;;;;;;5046483;28;20787;-78
2021/12/12 10:43:02;;;;;;;19.15;8.85;;;7.40;99.90;;;;;;5048075;28;20033;-79
2021/12/12 10:45:43;;;;;;;18.33;8.93;;;7.50;99.90;;;;;;5046618;28;20037;-79
2021/12/12 10:48:15;;;;;;;14.90;8.30;;;7.50;99.90;;;;;;5046752;28;20047;-79
2021/12/12 10:50:55;;;;;;;15.38;8.35;;;7.50;99.90;;;;;;5046570;28;20044;-79
2021/12/12 10:53:30;;;;;;;13.20;7.70;;;7.50;99.90;;;;;;5046787;28;20046;-79
2021/12/12 10:56:12;;;;;;;16.95;8.77;;;7.60;99.90;;;;;;5047679;28;20037;-79
2021/12/12 10:59:00;;;;;;;16.05;8.55;;;7.60;99.90;;;;;;5047545;28;20106;-79
2021/12/12 11:01:36;;;;;;;11.48;6.75;;;7.60;99.90;;;;;;5029965;28;20053;-78
2021/12/12 11:04:02;;;;;;;14.38;7.75;;;7.60;99.90;;;;;;5029783;28;20044;-78
2021/12/12 11:06:35;;;;;;;16.67;8.95;;;7.60;99.90;;;;;;5046600;28;20033;-79
2021/12/12 11:09:39;;;;;;;16.05;9.65;;;7.70;99.90;;;;;;5046220;28;20041;-79
2021/12/12 11:12:35;;;;;;;13.23;7.82;;;7.70;99.90;;;;;;5001623;28;20533;-78
2021/12/12 11:15:19;;;;;;;15.90;8.93;;;7.70;99.90;;;;;;5046218;28;20033;-78
2021/12/12 11:17:58;;;;;;;14.75;7.55;;;7.70;99.90;;;;;;5046209;28;20041;-79
2021/12/12 11:20:36;;;;;;;15.55;8.63;;;7.70;99.90;;;;;;5029785;28;20029;-78
2021/12/12 11:23:12;;;;;;;16.42;8.30;;;7.80;99.90;;;;;;5046125;28;20033;-78
2021/12/12 11:25:55;;;;;;;16.00;8.25;;;7.70;99.90;;;;;;5046010;28;20120;-78
2021/12/12 11:31:43;;;;;;;15.52;7.90;;;7.80;99.90;;;;;;5026039;28;20077;-79
2021/12/12 11:34:09;;;;;;;17.75;8.20;;;7.90;99.90;;;;;;5028002;28;20050;-79
2021/12/12 11:37:04;;;;;;;12.57;7.05;;;7.90;99.90;;;;;;5009594;28;20034;-79
2021/12/12 11:39:38;;;;;;;11.68;7.53;;;8.00;99.90;;;;;;5026471;28;20053;-78
2021/12/12 11:42:11;;;;;;;12.85;7.60;;;7.90;99.90;;;;;;5010335;28;20042;-79
2021/12/12 11:44:48;;;;;;;20.50;9.38;;;8.00;99.90;;;;;;5009925;28;20053;-78
2021/12/12 11:47:35;;;;;;;14.32;7.10;;;8.00;99.90;;;;;;5009838;28;20053;-78
2021/12/12 11:50:03;;;;;;;16.40;9.00;;;8.00;99.90;;;;;;5026100;28;20029;-78
2021/12/12 11:53:06;;;;;;;14.25;7.60;;;8.10;99.90;;;;;;5026152;28;20061;-78
2021/12/12 11:55:51;;;;;;;14.60;8.20;;;8.00;99.90;;;;;;5009670;28;20057;-78
2021/12/12 11:58:49;;;;;;;15.23;8.93;;;8.00;99.90;;;;;;5009629;28;20044;-78
2021/12/12 12:01:40;;;;;;;15.00;7.78;;;8.10;99.90;;;;;;5009548;28;20041;-78
2021/12/12 12:04:41;;;;;;;15.88;8.20;;;8.10;99.90;;;;;;5009523;28;20068;-79
2021/12/12 12:07:16;;;;;;;11.63;6.22;;;8.10;99.90;;;;;;5025549;28;20044;-78
2021/12/12 12:09:48;;;;;;;14.13;7.65;;;8.10;99.90;;;;;;5025546;28;20030;-78
2021/12/12 12:12:35;;;;;;;12.82;6.35;;;8.20;99.90;;;;;;5025246;28;20041;-78
2021/12/12 12:15:36;;;;;;;14.77;6.78;;;8.20;99.90;;;;;;5025294;28;20037;-77
2021/12/12 12:18:16;;;;;;;12.07;6.75;;;8.30;99.90;;;;;;5009168;28;20033;-78
2021/12/12 12:20:55;;;;;;;;;;;8.30;99.90;;;;;;5009234;28;20087;-78
2021/12/12 12:23:58;;;;;;;10.27;5.85;;;8.30;99.90;;;;;;5025472;28;19909;-78
2021/12/12 12:29:27;;;;;;;11.75;5.97;;;8.40;99.90;;;;;;5024536;28;20063;-79
2021/12/12 12:32:23;;;;;;;10.23;6.10;;;8.40;99.90;;;;;;5008452;28;20078;-79
2021/12/12 12:35:17;;;;;;;13.43;6.45;;;8.40;99.90;;;;;;5008444;28;20044;-79
2021/12/12 12:38:20;;;;;;;9.48;6.10;;;8.40;99.90;;;;;;5008424;28;20034;-78
2021/12/12 12:41:23;;;;;;;9.30;5.85;;;8.40;99.90;;;;;;5008582;28;20454;-78
2021/12/12 12:44:20;;;;;;;8.82;6.10;;;8.40;99.90;;;;;;5008382;28;20036;-78
2021/12/12 12:47:11;;;;;;;8.82;5.25;;;8.40;99.90;;;;;;5008462;28;20049;-78
2021/12/12 12:50:14;;;;;;;11.18;6.65;;;8.50;99.90;;;;;;5023717;28;20040;-79
2021/12/12 12:53:06;;;;;;;12.05;6.03;;;8.50;99.90;;;;;;5024403;28;20046;-79
2021/12/12 12:56:15;;;;;;;10.63;5.40;;;8.50;99.90;;;;;;5024635;28;20038;-79
2021/12/12 12:58:47;;;;;;;10.02;5.28;;;8.50;99.90;;;;;;5007819;28;20049;-79
2021/12/12 13:01:20;;;;;;;9.43;4.88;;;8.50;99.90;;;;;;5024483;28;20033;-79
2021/12/12 13:04:25;;;;;;;9.55;5.50;;;8.60;99.90;;;;;;5008156;28;20030;-78
2021/12/12 13:07:23;;;;;;;9.50;5.05;;;8.70;99.90;;;;;;5008000;28;20037;-78
2021/12/12 13:09:48;;;;;;;10.82;6.20;;;8.70;99.90;;;;;;5007783;28;20030;-79
2021/12/12 13:12:48;;;;;;;11.68;7.28;;;8.80;99.90;;;;;;5007751;28;20351;-79
2021/12/12 13:15:24;;;;;;;;;;;8.80;99.90;;;;;;5008271;28;20038;-78
2021/12/12 13:17:57;;;;;;;10.68;6.55;;;8.80;99.90;;;;;;5008157;28;19947;-79
2021/12/12 13:20:28;;;;;;;9.55;6.65;;;8.80;99.90;;;;;;5008089;28;20041;-79
2021/12/12 13:23:17;;;;;;;11.15;6.85;;;8.80;99.90;;;;;;5025795;28;20034;-78
2021/12/12 13:26:04;;;;;;;10.50;6.40;;;8.80;99.90;;;;;;5008047;28;20054;-79
2021/12/12 13:29:06;;;;;;;9.95;6.35;;;8.80;99.90;;;;;;5024196;28;20445;-78
2021/12/12 13:31:40;;;;;;;8.73;5.93;;;8.80;99.90;;;;;;5007332;28;20046;-79
2021/12/12 13:34:18;;;;;;;8.68;5.40;;;8.80;99.90;;;;;;5007576;28;20048;-79
2021/12/12 13:37:02;;;;;;;9.13;5.68;;;8.80;99.90;;;;;;5007362;28;20076;-79
2021/12/12 13:39:46;;;;;;;8.63;5.22;;;8.80;99.90;;;;;;5007458;28;20038;-79
2021/12/12 13:42:49;;;;;;;8.75;5.53;;;8.80;99.90;;;;;;5023806;28;20033;-79
2021/12/12 13:45:36;;;;;;;6.20;4.35;;;8.80;99.90;;;;;;5023778;28;20125;-79
2021/12/12 13:48:12;;;;;;;9.65;5.80;;;8.80;99.90;;;;;;5007345;28;20034;-79
2021/12/12 13:51:07;;;;;;;8.13;5.38;;;8.90;99.90;;;;;;5023858;28;20025;-79
2021/12/12 13:54:00;;;;;;;7.70;5.00;;;8.80;99.90;;;;;;5007333;28;20049;-79